sensor_id;sensor_type;location;lat;lon;timestamp;pressure;altitude;pressure_sealevel;temperature;humidity
34031;BME280;20319;28.466;-16.274;2024-01-11T00:01:52;95359.88;;;13.30;100.00
34031;BME280;20319;28.466;-16.274;2024-01-11T00:04:18;95504.59;;;14.16;100.00
34031;BME280;20319;28.466;-16.274;2024-01-11T00:06:44;95524.13;;;14.36;100.00
34031;BME280;20319;28.466;-16.274;2024-01-11T00:09:10;95450.09;;;13.95;100.00
34031;BME280;20319;28.466;-16.274;2024-01-11T00:11:36;95505.09;;;14.28;100.00
34031;BME280;20319;28.466;-16.274;2024-01-11T00:14:01;95420.16;;;13.68;100.00
34031;BME280;20319;28.466;-16.274;2024-01-11T00:16:27;95489.88;;;14.03;100.00
34031;BME280;20319;28.466;-16.274;2024-01-11T00:18:52;95502.97;;;14.25;100.00
34031;BME280;20319;28.466;-16.274;2024-01-11T00:21:18;95472.66;;;14.04;100.00
34031;BME280;20319;28.466;-16.274;2024-01-11T00:23:44;95478.78;;;14.15;100.00
34031;BME280;20319;28.466;-16.274;2024-01-11T00:26:12;95468.44;;;13.93;100.00
34031;BME280;20319;28.466;-16.274;2024-01-11T00:28:38;95460.81;;;14.05;100.00
34031;BME280;20319;28.466;-16.274;2024-01-11T00:31:04;95164.88;;;12.27;100.00
34031;BME280;20319;28.466;-16.274;2024-01-11T00:33:30;95450.38;;;13.94;100.00
34031;BME280;20319;28.466;-16.274;2024-01-11T00:35:55;95405.81;;;13.78;100.00
34031;BME280;20319;28.466;-16.274;2024-01-11T00:38:21;95240.53;;;12.88;100.00
34031;BME280;20319;28.466;-16.274;2024-01-11T00:40:47;95434.16;;;14.04;100.00
34031;BME280;20319;28.466;-16.274;2024-01-11T00:43:13;95386.38;;;13.86;100.00
34031;BME280;20319;28.466;-16.274;2024-01-11T00:45:39;95261.09;;;13.07;100.00
34031;BME280;20319;28.466;-16.274;2024-01-11T00:48:04;95265.88;;;13.15;100.00
34031;BME280;20319;28.466;-16.274;2024-01-11T00:50:31;95308.19;;;13.38;100.00
34031;BME280;20319;28.466;-16.274;2024-01-11T00:52:57;95400.97;;;13.80;100.00
34031;BME280;20319;28.466;-16.274;2024-01-11T00:55:23;95225.16;;;12.88;100.00
34031;BME280;20319;28.466;-16.274;2024-01-11T00:57:49;95411.19;;;14.11;100.00
34031;BME280;20319;28.466;-16.274;2024-01-11T01:00:15;95307.84;;;13.50;100.00
34031;BME280;20319;28.466;-16.274;2024-01-11T01:02:42;95453.69;;;14.24;100.00
34031;BME280;20319;28.466;-16.274;2024-01-11T01:05:08;95241.13;;;13.18;100.00
34031;BME280;20319;28.466;-16.274;2024-01-11T01:07:34;95405.44;;;14.28;100.00
34031;BME280;20319;28.466;-16.274;2024-01-11T01:09:59;95332.66;;;13.76;100.00
34031;BME280;20319;28.466;-16.274;2024-01-11T01:12:25;95397.44;;;14.13;100.00
34031;BME280;20319;28.466;-16.274;2024-01-11T01:14:51;95355.84;;;14.00;100.00
34031;BME280;20319;28.466;-16.274;2024-01-11T01:17:17;95243.44;;;13.30;100.00
34031;BME280;20319;28.466;-16.274;2024-01-11T01:19:43;95384.59;;;14.05;100.00
34031;BME280;20319;28.466;-16.274;2024-01-11T01:22:09;95426.31;;;14.41;100.00
34031;BME280;20319;28.466;-16.274;2024-01-11T01:24:34;95451.88;;;14.43;100.00
34031;BME280;20319;28.466;-16.274;2024-01-11T01:27:00;95416.78;;;14.20;100.00
34031;BME280;20319;28.466;-16.274;2024-01-11T01:29:26;95452.69;;;14.44;100.00
34031;BME280;20319;28.466;-16.274;2024-01-11T01:31:52;95379.78;;;14.02;100.00
34031;BME280;20319;28.466;-16.274;2024-01-11T01:34:18;95425.75;;;14.44;100.00
34031;BME280;20319;28.466;-16.274;2024-01-11T01:36:44;95396.28;;;14.24;100.00
34031;BME280;20319;28.466;-16.274;2024-01-11T01:39:09;95276.13;;;13.47;100.00
34031;BME280;20319;28.466;-16.274;2024-01-11T01:41:35;95255.81;;;13.31;100.00
34031;BME280;20319;28.466;-16.274;2024-01-11T01:44:01;95388.03;;;14.15;100.00
34031;BME280;20319;28.466;-16.274;2024-01-11T01:46:27;95431.22;;;14.34;100.00
34031;BME280;20319;28.466;-16.274;2024-01-11T01:48:55;95274.53;;;13.41;100.00
34031;BME280;20319;28.466;-16.274;2024-01-11T01:51:23;95069.59;;;12.25;100.00
34031;BME280;20319;28.466;-16.274;2024-01-11T01:53:52;95162.38;;;12.79;100.00
34031;BME280;20319;28.466;-16.274;2024-01-11T01:56:20;95439.84;;;14.36;100.00
34031;BME280;20319;28.466;-16.274;2024-01-11T01:58:46;95373.97;;;14.18;100.00
34031;BME280;20319;28.466;-16.274;2024-01-11T02:01:12;95365.25;;;14.03;100.00
34031;BME280;20319;28.466;-16.274;2024-01-11T02:03:43;95366.28;;;14.07;100.00
34031;BME280;20319;28.466;-16.274;2024-01-11T02:06:08;95249.38;;;13.27;100.00
34031;BME280;20319;28.466;-16.274;2024-01-11T02:08:34;95351.34;;;13.91;100.00
34031;BME280;20319;28.466;-16.274;2024-01-11T02:11:01;95382.69;;;14.10;100.00
34031;BME280;20319;28.466;-16.274;2024-01-11T02:13:26;95221.22;;;13.19;100.00
34031;BME280;20319;28.466;-16.274;2024-01-11T02:15:52;95357.72;;;14.00;100.00
34031;BME280;20319;28.466;-16.274;2024-01-11T02:18:18;95209.81;;;12.94;100.00
34031;BME280;20319;28.466;-16.274;2024-01-11T02:20:44;95379.81;;;13.97;100.00
34031;BME280;20319;28.466;-16.274;2024-01-11T02:23:15;95330.34;;;13.59;100.00
34031;BME280;20319;28.466;-16.274;2024-01-11T02:25:42;95404.09;;;13.92;100.00
34031;BME280;20319;28.466;-16.274;2024-01-11T02:28:08;95208.88;;;12.80;100.00
34031;BME280;20319;28.466;-16.274;2024-01-11T02:30:34;95406.00;;;13.91;100.00
34031;BME280;20319;28.466;-16.274;2024-01-11T02:33:01;95328.00;;;13.53;100.00
34031;BME280;20319;28.466;-16.274;2024-01-11T02:35:27;95344.06;;;13.63;100.00
34031;BME280;20319;28.466;-16.274;2024-01-11T02:37:54;95323.22;;;13.45;100.00
34031;BME280;20319;28.466;-16.274;2024-01-11T02:40:20;95373.78;;;13.81;100.00
34031;BME280;20319;28.466;-16.274;2024-01-11T02:42:46;95183.78;;;12.56;100.00
34031;BME280;20319;28.466;-16.274;2024-01-11T02:45:12;95372.25;;;13.70;100.00
34031;BME280;20319;28.466;-16.274;2024-01-11T02:47:38;95363.44;;;13.65;100.00
34031;BME280;20319;28.466;-16.274;2024-01-11T02:50:05;95364.97;;;13.71;100.00
34031;BME280;20319;28.466;-16.274;2024-01-11T02:52:32;95379.44;;;13.80;100.00
34031;BME280;20319;28.466;-16.274;2024-01-11T02:54:58;95349.47;;;13.58;100.00
34031;BME280;20319;28.466;-16.274;2024-01-11T02:57:24;95365.47;;;13.73;100.00
34031;BME280;20319;28.466;-16.274;2024-01-11T02:59:51;95144.50;;;12.26;100.00
34031;BME280;20319;28.466;-16.274;2024-01-11T03:02:17;95357.78;;;13.61;100.00
34031;BME280;20319;28.466;-16.274;2024-01-11T03:04:42;95183.50;;;12.52;100.00
34031;BME280;20319;28.466;-16.274;2024-01-11T03:07:08;95326.53;;;13.31;100.00
34031;BME280;20319;28.466;-16.274;2024-01-11T03:09:34;95154.94;;;12.28;100.00
34031;BME280;20319;28.466;-16.274;2024-01-11T03:12:00;95125.41;;;12.28;100.00
34031;BME280;20319;28.466;-16.274;2024-01-11T03:14:25;95201.13;;;12.68;100.00
34031;BME280;20319;28.466;-16.274;2024-01-11T03:16:51;95141.66;;;12.46;100.00
34031;BME280;20319;28.466;-16.274;2024-01-11T03:19:16;95346.75;;;13.63;100.00
34031;BME280;20319;28.466;-16.274;2024-01-11T03:21:43;95266.84;;;13.29;100.00
34031;BME280;20319;28.466;-16.274;2024-01-11T03:24:09;95168.94;;;12.63;100.00
34031;BME280;20319;28.466;-16.274;2024-01-11T03:26:35;95302.91;;;13.57;100.00
34031;BME280;20319;28.466;-16.274;2024-01-11T03:29:00;95280.22;;;13.39;100.00
34031;BME280;20319;28.466;-16.274;2024-01-11T03:31:26;95099.28;;;12.38;100.00
34031;BME280;20319;28.466;-16.274;2024-01-11T03:33:52;95341.53;;;13.71;100.00
34031;BME280;20319;28.466;-16.274;2024-01-11T03:36:23;95271.69;;;13.32;100.00
34031;BME280;20319;28.466;-16.274;2024-01-11T03:38:48;95103.78;;;12.48;100.00
34031;BME280;20319;28.466;-16.274;2024-01-11T03:41:14;95097.31;;;12.49;100.00
34031;BME280;20319;28.466;-16.274;2024-01-11T03:43:40;95268.72;;;13.63;100.00
34031;BME280;20319;28.466;-16.274;2024-01-11T03:46:05;95134.97;;;12.77;100.00
34031;BME280;20319;28.466;-16.274;2024-01-11T03:48:31;95287.94;;;13.80;100.00
34031;BME280;20319;28.466;-16.274;2024-01-11T03:50:57;95227.47;;;13.44;100.00
34031;BME280;20319;28.466;-16.274;2024-01-11T03:53:23;95217.88;;;13.32;100.00
34031;BME280;20319;28.466;-16.274;2024-01-11T03:55:48;95286.63;;;13.77;100.00
34031;BME280;20319;28.466;-16.274;2024-01-11T03:58:14;95259.47;;;13.74;100.00
34031;BME280;20319;28.466;-16.274;2024-01-11T04:00:39;95173.47;;;13.06;100.00
34031;BME280;20319;28.466;-16.274;2024-01-11T04:03:06;95313.69;;;13.86;100.00
34031;BME280;20319;28.466;-16.274;2024-01-11T04:05:32;95318.03;;;13.87;100.00
34031;BME280;20319;28.466;-16.274;2024-01-11T04:07:58;95302.97;;;13.81;100.00
34031;BME280;20319;28.466;-16.274;2024-01-11T04:10:23;95156.28;;;12.69;100.00
34031;BME280;20319;28.466;-16.274;2024-01-11T04:12:50;95328.53;;;13.83;100.00
34031;BME280;20319;28.466;-16.274;2024-01-11T04:15:16;95036.22;;;11.97;100.00
34031;BME280;20319;28.466;-16.274;2024-01-11T04:17:41;95194.25;;;12.91;100.00
34031;BME280;20319;28.466;-16.274;2024-01-11T04:20:07;95131.41;;;12.53;100.00
34031;BME280;20319;28.466;-16.274;2024-01-11T04:22:34;95325.22;;;13.63;100.00
34031;BME280;20319;28.466;-16.274;2024-01-11T04:25:00;95211.47;;;12.90;100.00
34031;BME280;20319;28.466;-16.274;2024-01-11T04:27:25;95360.06;;;13.78;100.00
34031;BME280;20319;28.466;-16.274;2024-01-11T04:29:51;95279.22;;;13.30;100.00
34031;BME280;20319;28.466;-16.274;2024-01-11T04:32:17;95363.59;;;13.73;100.00
34031;BME280;20319;28.466;-16.274;2024-01-11T04:34:43;95371.97;;;13.72;100.00
34031;BME280;20319;28.466;-16.274;2024-01-11T04:37:09;95354.50;;;13.69;100.00
34031;BME280;20319;28.466;-16.274;2024-01-11T04:39:36;95193.38;;;12.62;100.00
34031;BME280;20319;28.466;-16.274;2024-01-11T04:42:02;95346.56;;;13.49;100.00
34031;BME280;20319;28.466;-16.274;2024-01-11T04:44:28;95006.94;;;11.52;100.00
34031;BME280;20319;28.466;-16.274;2024-01-11T04:46:53;95282.50;;;13.22;100.00
34031;BME280;20319;28.466;-16.274;2024-01-11T04:49:19;95211.56;;;12.80;100.00
34031;BME280;20319;28.466;-16.274;2024-01-11T04:51:45;95164.13;;;12.60;100.00
34031;BME280;20319;28.466;-16.274;2024-01-11T04:54:10;95330.41;;;13.54;100.00
34031;BME280;20319;28.466;-16.274;2024-01-11T04:56:36;95256.91;;;13.25;100.00
34031;BME280;20319;28.466;-16.274;2024-01-11T04:59:02;95341.47;;;13.81;100.00
34031;BME280;20319;28.466;-16.274;2024-01-11T05:01:27;95151.47;;;12.66;100.00
34031;BME280;20319;28.466;-16.274;2024-01-11T05:03:53;95325.34;;;13.76;100.00
34031;BME280;20319;28.466;-16.274;2024-01-11T05:06:20;95330.03;;;13.66;100.00
34031;BME280;20319;28.466;-16.274;2024-01-11T05:08:49;95116.66;;;12.51;100.00
34031;BME280;20319;28.466;-16.274;2024-01-11T05:11:18;95282.53;;;13.51;100.00
34031;BME280;20319;28.466;-16.274;2024-01-11T05:13:44;95133.16;;;12.68;99.27
34031;BME280;20319;28.466;-16.274;2024-01-11T05:16:22;95330.06;;;13.94;98.22
34031;BME280;20319;28.466;-16.274;2024-01-11T05:18:49;95361.25;;;13.95;97.25
34031;BME280;20319;28.466;-16.274;2024-01-11T05:21:14;95134.81;;;12.64;95.04
34031;BME280;20319;28.466;-16.274;2024-01-11T05:23:41;95327.69;;;13.88;91.71
34031;BME280;20319;28.466;-16.274;2024-01-11T05:26:09;95199.00;;;13.09;89.06
34031;BME280;20319;28.466;-16.274;2024-01-11T05:28:35;95376.81;;;14.03;87.28
34031;BME280;20319;28.466;-16.274;2024-01-11T05:31:01;95260.78;;;13.48;86.22
34031;BME280;20319;28.466;-16.274;2024-01-11T05:33:27;95370.56;;;14.08;85.27
34031;BME280;20319;28.466;-16.274;2024-01-11T05:35:52;95239.22;;;13.19;85.10
34031;BME280;20319;28.466;-16.274;2024-01-11T05:38:19;95351.53;;;13.99;84.38
34031;BME280;20319;28.466;-16.274;2024-01-11T05:40:45;95159.66;;;12.84;83.44
34031;BME280;20319;28.466;-16.274;2024-01-11T05:43:11;95205.75;;;12.96;82.76
34031;BME280;20319;28.466;-16.274;2024-01-11T05:45:36;95210.09;;;12.92;82.64
34031;BME280;20319;28.466;-16.274;2024-01-11T05:48:02;95210.53;;;13.09;82.68
34031;BME280;20319;28.466;-16.274;2024-01-11T05:50:28;95143.59;;;12.74;82.94
34031;BME280;20319;28.466;-16.274;2024-01-11T05:52:53;95309.75;;;13.78;82.94
34031;BME280;20319;28.466;-16.274;2024-01-11T05:55:20;95202.22;;;13.06;83.05
34031;BME280;20319;28.466;-16.274;2024-01-11T05:57:45;95223.63;;;13.21;82.90
34031;BME280;20319;28.466;-16.274;2024-01-11T06:00:11;95288.13;;;13.60;82.84
34031;BME280;20319;28.466;-16.274;2024-01-11T06:02:37;95369.56;;;13.99;82.48
34031;BME280;20319;28.466;-16.274;2024-01-11T06:05:03;95197.94;;;13.00;82.08
34031;BME280;20319;28.466;-16.274;2024-01-11T06:07:29;95196.13;;;12.90;82.07
34031;BME280;20319;28.466;-16.274;2024-01-11T06:09:54;95295.06;;;13.66;82.03
34031;BME280;20319;28.466;-16.274;2024-01-11T06:12:20;95370.34;;;14.04;82.14
34031;BME280;20319;28.466;-16.274;2024-01-11T06:14:46;95319.09;;;13.86;81.32
34031;BME280;20319;28.466;-16.274;2024-01-11T06:17:11;95380.69;;;14.21;80.27
34031;BME280;20319;28.466;-16.274;2024-01-11T06:19:37;95377.53;;;14.14;79.69
34031;BME280;20319;28.466;-16.274;2024-01-11T06:22:04;95186.94;;;12.96;78.96
34031;BME280;20319;28.466;-16.274;2024-01-11T06:24:31;95388.22;;;14.19;78.26
34031;BME280;20319;28.466;-16.274;2024-01-11T15:47:07;94870.75;;;17.61;59.33
34031;BME280;20319;28.466;-16.274;2024-01-11T15:49:35;94899.75;;;17.95;59.48
34031;BME280;20319;28.466;-16.274;2024-01-11T15:52:02;94903.56;;;18.11;58.97
34031;BME280;20319;28.466;-16.274;2024-01-11T15:54:28;94901.66;;;18.20;58.72
34031;BME280;20319;28.466;-16.274;2024-01-11T15:56:53;94972.56;;;18.73;58.20
34031;BME280;20319;28.466;-16.274;2024-01-11T15:59:19;94852.25;;;18.06;57.10
34031;BME280;20319;28.466;-16.274;2024-01-11T16:01:45;94844.13;;;18.06;56.50
34031;BME280;20319;28.466;-16.274;2024-01-11T16:04:10;94711.53;;;17.21;55.95
34031;BME280;20319;28.466;-16.274;2024-01-11T16:06:36;94871.34;;;18.18;55.71
34031;BME280;20319;28.466;-16.274;2024-01-11T16:09:01;95057.38;;;19.34;55.29
34031;BME280;20319;28.466;-16.274;2024-01-11T16:11:30;95045.38;;;19.35;54.85
34031;BME280;20319;28.466;-16.274;2024-01-11T16:13:55;94891.25;;;18.31;54.67
34031;BME280;20319;28.466;-16.274;2024-01-11T16:16:21;94829.00;;;17.97;54.56
34031;BME280;20319;28.466;-16.274;2024-01-11T16:18:47;94926.81;;;18.63;54.71
34031;BME280;20319;28.466;-16.274;2024-01-11T16:21:12;94988.00;;;18.98;53.86
34031;BME280;20319;28.466;-16.274;2024-01-11T16:23:38;94903.53;;;18.54;53.76
34031;BME280;20319;28.466;-16.274;2024-01-11T16:26:06;94905.16;;;18.46;53.80
34031;BME280;20319;28.466;-16.274;2024-01-11T16:28:32;94994.34;;;19.02;53.66
34031;BME280;20319;28.466;-16.274;2024-01-11T16:30:58;94827.22;;;18.09;53.66
34031;BME280;20319;28.466;-16.274;2024-01-11T16:33:23;94993.34;;;19.15;53.63
34031;BME280;20319;28.466;-16.274;2024-01-11T16:35:50;94867.66;;;18.31;53.86
34031;BME280;20319;28.466;-16.274;2024-01-11T16:38:16;95004.53;;;19.14;53.86
34031;BME280;20319;28.466;-16.274;2024-01-11T16:40:41;94832.31;;;18.11;53.66
34031;BME280;20319;28.466;-16.274;2024-01-11T16:43:07;95022.25;;;19.29;53.48
34031;BME280;20319;28.466;-16.274;2024-01-11T16:45:36;94829.94;;;18.09;52.62
34031;BME280;20319;28.466;-16.274;2024-01-11T16:48:03;94858.25;;;18.37;52.25
34031;BME280;20319;28.466;-16.274;2024-01-11T16:50:32;94774.53;;;17.81;51.50
34031;BME280;20319;28.466;-16.274;2024-01-11T16:52:58;94989.72;;;19.11;51.49
34031;BME280;20319;28.466;-16.274;2024-01-11T16:55:24;94999.44;;;19.12;51.94
34031;BME280;20319;28.466;-16.274;2024-01-11T16:57:49;95013.78;;;19.30;51.65
34031;BME280;20319;28.466;-16.274;2024-01-11T17:00:15;94923.78;;;18.56;51.24
34031;BME280;20319;28.466;-16.274;2024-01-11T17:02:44;94684.94;;;17.06;51.46
34031;BME280;20319;28.466;-16.274;2024-01-11T17:05:10;94868.81;;;18.22;51.77
34031;BME280;20319;28.466;-16.274;2024-01-11T17:07:36;94877.75;;;18.22;51.63
34031;BME280;20319;28.466;-16.274;2024-01-11T17:10:02;94863.25;;;18.10;51.71
34031;BME280;20319;28.466;-16.274;2024-01-11T17:12:28;94995.00;;;18.99;51.98
34031;BME280;20319;28.466;-16.274;2024-01-11T17:14:53;95020.84;;;19.05;51.96
34031;BME280;20319;28.466;-16.274;2024-01-11T17:17:19;94836.19;;;17.84;52.10
34031;BME280;20319;28.466;-16.274;2024-01-11T17:19:44;94958.09;;;18.52;52.90
34031;BME280;20319;28.466;-16.274;2024-01-11T17:22:10;95008.78;;;18.77;53.06
34031;BME280;20319;28.466;-16.274;2024-01-11T17:24:36;95006.88;;;18.69;53.70
34031;BME280;20319;28.466;-16.274;2024-01-11T17:27:01;94921.44;;;17.95;54.15
34031;BME280;20319;28.466;-16.274;2024-01-11T17:29:35;95084.41;;;18.87;55.21
34031;BME280;20319;28.466;-16.274;2024-01-11T17:32:02;94926.22;;;17.81;56.21
34031;BME280;20319;28.466;-16.274;2024-01-11T17:34:27;94956.47;;;17.83;57.47
34031;BME280;20319;28.466;-16.274;2024-01-11T17:36:53;94973.19;;;17.85;58.00
34031;BME280;20319;28.466;-16.274;2024-01-11T17:39:19;95048.50;;;18.22;58.55
34031;BME280;20319;28.466;-16.274;2024-01-11T17:41:45;94837.16;;;16.89;59.05
34031;BME280;20319;28.466;-16.274;2024-01-11T17:44:10;95084.19;;;18.33;59.63
34031;BME280;20319;28.466;-16.274;2024-01-11T17:46:36;94906.34;;;17.21;60.27
34031;BME280;20319;28.466;-16.274;2024-01-11T17:49:02;94960.06;;;17.44;61.53
34031;BME280;20319;28.466;-16.274;2024-01-11T17:51:27;94919.56;;;17.22;62.11
34031;BME280;20319;28.466;-16.274;2024-01-11T17:53:54;94879.63;;;16.80;63.08
34031;BME280;20319;28.466;-16.274;2024-01-11T17:56:20;94999.59;;;17.62;64.02
34031;BME280;20319;28.466;-16.274;2024-01-11T17:58:46;94991.84;;;17.39;64.95
34031;BME280;20319;28.466;-16.274;2024-01-11T18:01:24;95082.41;;;18.03;66.63
34031;BME280;20319;28.466;-16.274;2024-01-11T18:03:50;95075.66;;;17.83;67.20
34031;BME280;20319;28.466;-16.274;2024-01-11T18:06:16;95092.25;;;17.90;68.29
34031;BME280;20319;28.466;-16.274;2024-01-11T18:08:41;94916.50;;;16.76;69.10
34031;BME280;20319;28.466;-16.274;2024-01-11T18:11:11;94898.59;;;16.58;70.18
34031;BME280;20319;28.466;-16.274;2024-01-11T18:13:37;95065.66;;;17.53;71.09
34031;BME280;20319;28.466;-16.274;2024-01-11T18:16:04;95099.47;;;17.64;71.92
34031;BME280;20319;28.466;-16.274;2024-01-11T18:18:33;95036.03;;;17.17;72.32
34031;BME280;20319;28.466;-16.274;2024-01-11T18:20:59;94872.91;;;16.16;73.30
34031;BME280;20319;28.466;-16.274;2024-01-11T18:23:27;95016.34;;;16.95;73.77
34031;BME280;20319;28.466;-16.274;2024-01-11T18:25:54;95011.75;;;16.95;74.71
34031;BME280;20319;28.466;-16.274;2024-01-11T18:28:20;94815.41;;;15.72;75.25
34031;BME280;20319;28.466;-16.274;2024-01-11T18:30:46;95031.94;;;16.98;76.27
34031;BME280;20319;28.466;-16.274;2024-01-11T18:33:12;94934.84;;;16.35;77.10
34031;BME280;20319;28.466;-16.274;2024-01-11T18:35:38;94930.88;;;16.10;77.97
34031;BME280;20319;28.466;-16.274;2024-01-11T18:38:04;94956.47;;;16.35;79.34
34031;BME280;20319;28.466;-16.274;2024-01-11T18:40:29;94867.50;;;15.72;79.99
34031;BME280;20319;28.466;-16.274;2024-01-11T18:42:55;95053.50;;;16.59;80.88
34031;BME280;20319;28.466;-16.274;2024-01-11T18:45:21;94879.84;;;15.65;81.60
34031;BME280;20319;28.466;-16.274;2024-01-11T18:47:47;94924.81;;;15.69;82.34
34031;BME280;20319;28.466;-16.274;2024-01-11T18:50:12;94999.63;;;16.26;83.22
34031;BME280;20319;28.466;-16.274;2024-01-11T18:52:38;94964.16;;;15.84;83.46
34031;BME280;20319;28.466;-16.274;2024-01-11T18:55:04;95122.19;;;16.80;84.78
34031;BME280;20319;28.466;-16.274;2024-01-11T18:57:30;95092.44;;;16.58;85.26
34031;BME280;20319;28.466;-16.274;2024-01-11T18:59:55;95063.25;;;16.33;85.79
34031;BME280;20319;28.466;-16.274;2024-01-11T19:02:24;95064.81;;;16.11;86.56
34031;BME280;20319;28.466;-16.274;2024-01-11T19:04:49;95080.34;;;16.42;86.73
34031;BME280;20319;28.466;-16.274;2024-01-11T19:07:15;94950.22;;;15.55;86.87
34031;BME280;20319;28.466;-16.274;2024-01-11T19:09:41;95082.09;;;16.24;87.06
34031;BME280;20319;28.466;-16.274;2024-01-11T19:12:07;95064.91;;;16.20;87.29
34031;BME280;20319;28.466;-16.274;2024-01-11T19:14:33;95105.38;;;16.47;88.10
34031;BME280;20319;28.466;-16.274;2024-01-11T19:17:00;94890.94;;;15.14;88.76
34031;BME280;20319;28.466;-16.274;2024-01-11T19:19:28;94824.88;;;14.76;89.07
34031;BME280;20319;28.466;-16.274;2024-01-11T19:21:54;95115.88;;;16.49;89.21
34031;BME280;20319;28.466;-16.274;2024-01-11T19:24:19;95050.03;;;16.09;89.52
34031;BME280;20319;28.466;-16.274;2024-01-11T19:26:45;94992.28;;;15.69;89.84
34031;BME280;20319;28.466;-16.274;2024-01-11T19:29:15;94891.34;;;15.08;90.29
34031;BME280;20319;28.466;-16.274;2024-01-11T19:31:41;95083.91;;;16.28;90.20
34031;BME280;20319;28.466;-16.274;2024-01-11T19:34:07;95113.00;;;16.32;89.95
34031;BME280;20319;28.466;-16.274;2024-01-11T19:36:38;95109.19;;;16.33;89.51
34031;BME280;20319;28.466;-16.274;2024-01-11T19:39:04;95086.34;;;16.03;88.92
34031;BME280;20319;28.466;-16.274;2024-01-11T19:41:30;94903.94;;;14.85;88.82
34031;BME280;20319;28.466;-16.274;2024-01-11T19:43:58;95135.34;;;16.23;88.94
34031;BME280;20319;28.466;-16.274;2024-01-11T19:46:23;95087.34;;;16.07;89.22
34031;BME280;20319;28.466;-16.274;2024-01-11T19:48:49;94959.63;;;15.17;89.30
34031;BME280;20319;28.466;-16.274;2024-01-11T19:51:15;94966.00;;;15.21;89.10
34031;BME280;20319;28.466;-16.274;2024-01-11T19:53:41;95108.53;;;16.13;89.30
34031;BME280;20319;28.466;-16.274;2024-01-11T19:58:42;95112.44;;;16.07;88.79
34031;BME280;20319;28.466;-16.274;2024-01-11T20:01:07;94909.00;;;14.87;87.98
34031;BME280;20319;28.466;-16.274;2024-01-11T20:03:33;95055.00;;;15.66;86.85
34031;BME280;20319;28.466;-16.274;2024-01-11T20:05:59;95067.38;;;15.67;85.08
34031;BME280;20319;28.466;-16.274;2024-01-11T20:08:24;95041.59;;;15.61;83.02
34031;BME280;20319;28.466;-16.274;2024-01-11T20:10:50;95070.69;;;15.64;81.50
34031;BME280;20319;28.466;-16.274;2024-01-11T20:13:16;94927.00;;;14.77;79.17
34031;BME280;20319;28.466;-16.274;2024-01-11T20:15:41;95126.88;;;16.03;76.99
34031;BME280;20319;28.466;-16.274;2024-01-11T20:18:07;94896.13;;;14.56;74.00
34031;BME280;20319;28.466;-16.274;2024-01-11T20:20:35;94889.13;;;14.55;70.28
34031;BME280;20319;28.466;-16.274;2024-01-11T20:23:01;94924.78;;;14.93;69.10
34031;BME280;20319;28.466;-16.274;2024-01-11T20:25:29;94911.81;;;14.95;67.35
34031;BME280;20319;28.466;-16.274;2024-01-11T20:27:55;95070.84;;;15.95;66.79
34031;BME280;20319;28.466;-16.274;2024-01-11T20:30:21;94951.53;;;15.30;65.93
34031;BME280;20319;28.466;-16.274;2024-01-11T20:32:46;94888.72;;;14.89;65.39
34031;BME280;20319;28.466;-16.274;2024-01-11T20:35:12;95082.75;;;15.94;65.18
34031;BME280;20319;28.466;-16.274;2024-01-11T20:37:38;94958.03;;;15.29;65.32
34031;BME280;20319;28.466;-16.274;2024-01-11T20:40:08;95096.50;;;16.19;65.67
34031;BME280;20319;28.466;-16.274;2024-01-11T20:42:34;95004.91;;;15.60;65.19
34031;BME280;20319;28.466;-16.274;2024-01-11T20:45:01;95058.28;;;15.90;64.17
34031;BME280;20319;28.466;-16.274;2024-01-11T20:47:27;95037.97;;;15.66;62.53
34031;BME280;20319;28.466;-16.274;2024-01-11T20:49:53;94946.34;;;15.20;61.33
34031;BME280;20319;28.466;-16.274;2024-01-11T20:52:19;94894.72;;;14.86;59.54
34031;BME280;20319;28.466;-16.274;2024-01-11T20:54:45;94938.38;;;15.15;58.38
34031;BME280;20319;28.466;-16.274;2024-01-11T20:57:11;94985.22;;;15.46;57.20
34031;BME280;20319;28.466;-16.274;2024-01-11T20:59:36;94919.19;;;15.03;56.51
34031;BME280;20319;28.466;-16.274;2024-01-11T21:02:03;95104.09;;;16.31;55.85
34031;BME280;20319;28.466;-16.274;2024-01-11T21:04:29;95065.19;;;16.18;56.06
34031;BME280;20319;28.466;-16.274;2024-01-11T21:06:55;95047.31;;;16.09;54.84
34031;BME280;20319;28.466;-16.274;2024-01-11T21:09:20;95106.06;;;16.39;54.12
34031;BME280;20319;28.466;-16.274;2024-01-11T21:11:46;94910.59;;;15.28;53.51
34031;BME280;20319;28.466;-16.274;2024-01-11T21:14:11;94916.28;;;15.40;53.23
34031;BME280;20319;28.466;-16.274;2024-01-11T21:16:37;95046.91;;;16.15;52.74
34031;BME280;20319;28.466;-16.274;2024-01-11T21:19:03;95075.41;;;16.21;52.01
34031;BME280;20319;28.466;-16.274;2024-01-11T21:21:32;94982.59;;;15.68;51.67
34031;BME280;20319;28.466;-16.274;2024-01-11T21:23:58;95081.00;;;16.25;51.65
34031;BME280;20319;28.466;-16.274;2024-01-11T21:26:27;95023.50;;;16.11;51.48
34031;BME280;20319;28.466;-16.274;2024-01-11T21:28:53;94718.41;;;14.11;50.75
34031;BME280;20319;28.466;-16.274;2024-01-11T21:31:27;94942.84;;;15.60;50.65
34031;BME280;20319;28.466;-16.274;2024-01-11T21:33:52;95070.25;;;16.33;50.95
34031;BME280;20319;28.466;-16.274;2024-01-11T21:36:19;95099.44;;;16.59;50.92
34031;BME280;20319;28.466;-16.274;2024-01-11T21:38:52;95098.94;;;16.43;50.83
34031;BME280;20319;28.466;-16.274;2024-01-11T21:41:20;94911.75;;;15.36;50.89
34031;BME280;20319;28.466;-16.274;2024-01-11T21:43:46;94885.09;;;15.34;51.19
34031;BME280;20319;28.466;-16.274;2024-01-11T21:46:11;94710.56;;;14.28;51.77
34031;BME280;20319;28.466;-16.274;2024-01-11T21:48:38;94868.53;;;15.14;52.32
34031;BME280;20319;28.466;-16.274;2024-01-11T21:51:04;94996.38;;;15.80;53.13
34031;BME280;20319;28.466;-16.274;2024-01-11T21:53:30;95046.59;;;16.17;53.54